Time;durP1;ratioP1;P1;durP2;ratioP2;P2;SDS_P1;SDS_P2;PMS_P1;PMS_P2;Temp;Humidity;BMP_temperature;BMP_pressure;BME280_temperature;BME280_humidity;BME280_pressure;Samples;Min_cycle;Max_cycle;Signal;HPM_P1;HPM_P2
2023/04/28 00:02:17;;;;;;;15.15;11.38;;;7.50;99.90;;;;;;5090961;28;20089;-32
2023/04/28 00:04:42;;;;;;;16.60;10.85;;;7.50;99.90;;;;;;5093548;28;20051;-32
2023/04/28 00:07:08;;;;;;;15.15;11.40;;;7.50;99.90;;;;;;5093928;28;20107;-33
2023/04/28 00:09:34;;;;;;;13.98;10.82;;;7.50;99.90;;;;;;5111820;28;20061;-33
2023/04/28 00:12:01;;;;;;;14.20;10.63;;;7.40;99.90;;;;;;5092569;28;20063;-32
2023/04/28 00:14:27;;;;;;;18.15;10.75;;;7.40;99.90;;;;;;5090779;28;20032;-34
2023/04/28 00:16:55;;;;;;;15.27;11.32;;;7.40;99.90;;;;;;5075787;28;20044;-34
2023/04/28 00:19:21;;;;;;;11.60;10.15;;;7.40;99.90;;;;;;5088487;28;20285;-34
2023/04/28 00:21:46;;;;;;;12.57;9.75;;;7.40;99.90;;;;;;5092543;28;20039;-34
2023/04/28 00:24:12;;;;;;;12.65;10.30;;;7.40;99.90;;;;;;5092589;28;20481;-34
2023/04/28 00:26:38;;;;;;;12.68;10.63;;;7.30;99.90;;;;;;5092637;28;20043;-34
2023/04/28 00:29:04;;;;;;;18.30;11.05;;;7.30;99.90;;;;;;5092578;28;20048;-34
2023/04/28 00:31:29;;;;;;;13.65;11.18;;;7.30;99.90;;;;;;5090836;28;20071;-34
2023/04/28 00:33:55;;;;;;;13.20;10.50;;;7.30;99.90;;;;;;5086429;28;20122;-34
2023/04/28 00:36:21;;;;;;;15.60;10.50;;;7.30;99.90;;;;;;5088490;28;20036;-34
2023/04/28 00:38:46;;;;;;;14.98;11.35;;;7.30;99.90;;;;;;5087137;28;20038;-34
2023/04/28 00:41:13;;;;;;;13.75;11.10;;;7.30;99.90;;;;;;5092145;28;20397;-34
2023/04/28 00:43:49;;;;;;;12.23;10.02;;;7.30;99.90;;;;;;5087206;28;20046;-34
2023/04/28 00:46:23;;;;;;;12.65;10.25;;;7.20;99.90;;;;;;5091801;28;20063;-34
2023/04/28 00:48:49;;;;;;;13.05;10.50;;;7.20;99.90;;;;;;5091885;28;20439;-34
2023/04/28 00:51:16;;;;;;;14.57;10.27;;;7.20;99.90;;;;;;5091605;28;20036;-33
2023/04/28 00:53:42;;;;;;;13.88;10.02;;;7.20;99.90;;;;;;5087737;28;20039;-33
2023/04/28 00:56:08;;;;;;;13.90;10.00;;;7.10;99.90;;;;;;5086118;28;20048;-33
2023/04/28 00:58:34;;;;;;;14.23;10.63;;;7.10;99.90;;;;;;5087158;28;20115;-34
2023/04/28 01:01:08;;;;;;;18.27;11.68;;;7.10;99.90;;;;;;5086095;28;20119;-34
2023/04/28 01:03:38;;;;;;;16.02;10.98;;;7.10;99.90;;;;;;5090027;28;20036;-34
2023/04/28 01:06:06;;;;;;;12.20;10.00;;;7.10;99.90;;;;;;5092164;28;20431;-34
2023/04/28 01:08:33;;;;;;;14.75;10.25;;;7.10;99.90;;;;;;5091497;28;20032;-34
2023/04/28 01:10:58;;;;;;;13.88;10.35;;;7.10;99.90;;;;;;5091687;28;20051;-34
2023/04/28 01:13:25;;;;;;;15.02;10.98;;;7.00;99.90;;;;;;5087394;28;20044;-34
2023/04/28 01:15:51;;;;;;;12.40;10.52;;;7.00;99.90;;;;;;5085382;28;20047;-34
2023/04/28 01:18:17;;;;;;;13.38;11.05;;;7.00;99.90;;;;;;5086348;28;20044;-34
2023/04/28 01:20:42;;;;;;;15.25;11.05;;;7.00;99.90;;;;;;5091486;28;20043;-34
2023/04/28 01:23:13;;;;;;;13.52;10.43;;;7.00;99.90;;;;;;5087910;28;20044;-33
2023/04/28 01:25:39;;;;;;;15.70;10.82;;;7.10;99.90;;;;;;5085495;28;20033;-34
2023/04/28 01:28:05;;;;;;;16.88;10.68;;;7.00;99.90;;;;;;5090943;28;20225;-33
2023/04/28 01:30:30;;;;;;;15.07;11.15;;;7.00;99.90;;;;;;5090979;28;20027;-34
2023/04/28 01:32:57;;;;;;;14.48;10.57;;;7.00;99.90;;;;;;5091187;28;20035;-34
2023/04/28 01:35:23;;;;;;;14.52;11.30;;;7.00;99.90;;;;;;5091391;28;20043;-34
2023/04/28 01:37:48;;;;;;;15.93;10.82;;;7.00;99.90;;;;;;5090468;28;20040;-34
2023/04/28 01:40:14;;;;;;;17.70;9.98;;;7.00;99.90;;;;;;5086289;28;20032;-34
2023/04/28 01:42:40;;;;;;;15.18;10.88;;;7.00;99.90;;;;;;5090472;28;20063;-33
2023/04/28 01:45:06;;;;;;;16.85;10.95;;;7.00;99.90;;;;;;5082401;28;20032;-34
2023/04/28 01:47:32;;;;;;;16.25;11.60;;;7.00;99.90;;;;;;5085293;28;20068;-34
2023/04/28 01:49:57;;;;;;;14.32;10.25;;;7.00;99.90;;;;;;5084334;28;20075;-34
2023/04/28 01:52:26;;;;;;;13.85;10.60;;;7.00;99.90;;;;;;5091013;28;20036;-33
2023/04/28 01:54:53;;;;;;;14.02;11.10;;;7.00;99.90;;;;;;5090500;28;20032;-34
2023/04/28 01:57:19;;;;;;;16.63;11.27;;;7.00;99.90;;;;;;5087537;28;20036;-34
2023/04/28 01:59:45;;;;;;;14.65;11.10;;;7.00;99.90;;;;;;5090992;28;20173;-34
2023/04/28 02:02:10;;;;;;;16.27;11.95;;;6.90;99.90;;;;;;5090590;28;20043;-34
2023/04/28 02:04:40;;;;;;;15.48;11.55;;;6.90;99.90;;;;;;5090933;28;20043;-34
2023/04/28 02:07:06;;;;;;;19.02;11.80;;;6.90;99.90;;;;;;5090466;28;20039;-34
2023/04/28 02:09:32;;;;;;;13.63;11.38;;;6.90;99.90;;;;;;5090677;28;20043;-33
2023/04/28 02:11:59;;;;;;;16.65;12.10;;;6.90;99.90;;;;;;5089270;28;20166;-34
2023/04/28 02:14:25;;;;;;;15.35;10.50;;;6.90;99.90;;;;;;5090639;28;20228;-34
2023/04/28 02:16:51;;;;;;;14.30;11.90;;;6.90;99.90;;;;;;5087026;28;20388;-34
2023/04/28 02:19:17;;;;;;;16.35;11.27;;;6.90;99.90;;;;;;5084176;28;20044;-34
2023/04/28 02:21:42;;;;;;;14.90;11.50;;;6.80;99.90;;;;;;5067153;28;20050;-34
2023/04/28 02:24:08;;;;;;;16.25;11.70;;;6.80;99.90;;;;;;5087385;28;20044;-34
2023/04/28 02:26:34;;;;;;;16.05;12.25;;;6.80;99.90;;;;;;5085055;28;20032;-34
2023/04/28 02:29:00;;;;;;;16.38;11.73;;;6.70;99.90;;;;;;5089295;28;20501;-34
2023/04/28 02:31:26;;;;;;;14.80;11.68;;;6.70;99.90;;;;;;5090264;28;20040;-34
2023/04/28 02:33:52;;;;;;;14.98;11.07;;;6.70;99.90;;;;;;5089938;28;20111;-34
2023/04/28 02:36:18;;;;;;;16.25;11.05;;;6.70;99.90;;;;;;5090291;28;20055;-34
2023/04/28 02:38:43;;;;;;;16.17;11.65;;;6.70;99.90;;;;;;5086336;28;20036;-34
2023/04/28 02:41:10;;;;;;;14.23;10.80;;;6.70;99.90;;;;;;5089667;28;20078;-34
2023/04/28 02:43:36;;;;;;;16.77;11.55;;;6.70;99.90;;;;;;5090312;28;20115;-34
2023/04/28 02:46:03;;;;;;;14.93;10.98;;;6.70;99.90;;;;;;5089686;28;20090;-34
2023/04/28 02:48:29;;;;;;;15.27;11.35;;;6.70;99.90;;;;;;5089691;28;20047;-34
2023/04/28 02:50:55;;;;;;;17.42;11.30;;;6.70;99.90;;;;;;5089885;28;20216;-34
2023/04/28 02:53:21;;;;;;;16.77;11.60;;;6.70;99.90;;;;;;5089056;28;20063;-33
2023/04/28 02:55:47;;;;;;;16.42;11.70;;;6.70;99.90;;;;;;5085141;28;20040;-34
2023/04/28 02:58:13;;;;;;;17.25;12.35;;;6.60;99.90;;;;;;5072860;28;20071;-34
2023/04/28 03:00:39;;;;;;;15.52;11.82;;;6.70;99.90;;;;;;5087801;28;20092;-34
2023/04/28 03:03:05;;;;;;;17.48;11.32;;;6.70;99.90;;;;;;5088185;28;20115;-34
2023/04/28 03:05:30;;;;;;;16.77;11.25;;;6.70;99.90;;;;;;5089871;28;20126;-34
2023/04/28 03:07:56;;;;;;;17.25;11.80;;;6.70;99.90;;;;;;5089578;28;20040;-34
2023/04/28 03:10:22;;;;;;;16.23;11.73;;;6.70;99.90;;;;;;5089921;28;20169;-34
2023/04/28 03:12:47;;;;;;;17.27;11.80;;;6.70;99.90;;;;;;5089318;28;20090;-34
2023/04/28 03:15:13;;;;;;;17.90;12.38;;;6.70;99.90;;;;;;5083165;28;20043;-34
2023/04/28 03:17:40;;;;;;;16.17;11.35;;;6.70;99.90;;;;;;5086840;28;20405;-34
2023/04/28 03:20:07;;;;;;;16.13;11.43;;;6.70;99.90;;;;;;5072503;28;20040;-33
2023/04/28 03:22:33;;;;;;;15.23;11.15;;;6.70;99.90;;;;;;5089557;28;20127;-33
2023/04/28 03:24:59;;;;;;;16.42;11.75;;;6.70;99.90;;;;;;5089558;28;20520;-34
2023/04/28 03:27:25;;;;;;;14.52;11.27;;;6.70;99.90;;;;;;5089966;28;20036;-34
2023/04/28 03:29:51;;;;;;;17.35;12.00;;;6.70;99.90;;;;;;5089694;28;20032;-33
2023/04/28 03:32:16;;;;;;;16.40;11.90;;;6.70;99.90;;;;;;5087147;28;20380;-34
2023/04/28 03:34:43;;;;;;;13.65;11.70;;;6.70;99.90;;;;;;5086044;28;20081;-34
2023/04/28 03:37:09;;;;;;;16.05;11.68;;;6.70;99.90;;;;;;5085020;28;20052;-34
2023/04/28 03:39:35;;;;;;;15.82;10.95;;;6.70;99.90;;;;;;5089407;28;20586;-34
2023/04/28 03:42:01;;;;;;;15.50;11.68;;;6.70;99.90;;;;;;5084716;28;20032;-34
2023/04/28 03:44:26;;;;;;;15.52;11.13;;;6.70;99.90;;;;;;5085704;28;20061;-34
2023/04/28 03:46:55;;;;;;;16.88;11.77;;;6.70;99.90;;;;;;5079688;28;20040;-34
2023/04/28 03:49:21;;;;;;;17.17;11.65;;;6.70;99.90;;;;;;5084556;28;20489;-34
2023/04/28 03:51:48;;;;;;;19.30;11.73;;;6.70;99.90;;;;;;5086500;28;20043;-34
2023/04/28 03:54:14;;;;;;;18.92;11.88;;;6.70;99.90;;;;;;5072946;28;20047;-34
2023/04/28 03:56:40;;;;;;;15.25;11.88;;;6.70;99.90;;;;;;5089710;28;20447;-34
2023/04/28 03:59:06;;;;;;;15.85;11.43;;;6.70;99.90;;;;;;5089595;28;20615;-34
2023/04/28 04:01:32;;;;;;;14.88;11.43;;;6.70;99.90;;;;;;5087734;28;20123;-33
2023/04/28 04:03:57;;;;;;;14.30;10.85;;;6.70;99.90;;;;;;5088682;28;20105;-34
2023/04/28 04:06:23;;;;;;;14.27;10.85;;;6.70;99.90;;;;;;5068993;28;20033;-34
2023/04/28 04:08:49;;;;;;;14.77;11.52;;;6.70;99.90;;;;;;5093223;28;20036;-34
2023/04/28 04:11:15;;;;;;;13.30;10.13;;;6.70;99.90;;;;;;5090648;28;20409;-34
2023/04/28 04:13:41;;;;;;;15.13;11.38;;;6.60;99.90;;;;;;5090016;28;20067;-34
2023/04/28 04:16:07;;;;;;;16.75;11.50;;;6.60;99.90;;;;;;5092849;28;20044;-34
2023/04/28 04:18:32;;;;;;;16.77;11.65;;;6.70;99.90;;;;;;5089226;28;20051;-34
2023/04/28 04:20:58;;;;;;;15.93;10.63;;;6.70;99.90;;;;;;5090162;28;20076;-34
2023/04/28 04:23:24;;;;;;;16.58;11.05;;;6.70;99.90;;;;;;5091742;28;20039;-34
2023/04/28 04:25:50;;;;;;;13.23;10.65;;;6.70;99.90;;;;;;5090124;28;20032;-34
2023/04/28 04:28:15;;;;;;;15.52;11.48;;;6.70;99.90;;;;;;5092412;28;20028;-34
2023/04/28 04:30:41;;;;;;;16.40;12.13;;;6.80;99.90;;;;;;5088361;28;20028;-33
2023/04/28 04:33:07;;;;;;;15.32;11.32;;;6.70;99.90;;;;;;5089834;28;20040;-34
2023/04/28 04:35:33;;;;;;;15.90;11.35;;;6.80;99.90;;;;;;5088432;28;20401;-34
2023/04/28 04:38:00;;;;;;;17.65;11.15;;;6.80;99.90;;;;;;5092440;28;20047;-34
2023/04/28 04:40:26;;;;;;;18.30;11.10;;;6.80;99.90;;;;;;5075868;28;20036;-34
2023/04/28 04:42:51;;;;;;;16.33;11.15;;;6.80;99.90;;;;;;5093564;28;20101;-31
2023/04/28 04:45:17;;;;;;;17.38;11.10;;;6.80;99.90;;;;;;5086956;28;20044;-31
2023/04/28 04:47:43;;;;;;;16.35;10.20;;;6.90;99.90;;;;;;5092568;28;20036;-33
2023/04/28 04:50:10;;;;;;;15.07;10.90;;;6.90;99.90;;;;;;5088591;28;20036;-33
2023/04/28 04:52:36;;;;;;;15.25;10.65;;;6.90;99.90;;;;;;5090967;28;20118;-33
2023/04/28 04:55:02;;;;;;;15.98;10.90;;;6.90;99.90;;;;;;5091909;28;20063;-33
2023/04/28 04:57:27;;;;;;;16.58;11.05;;;7.00;99.90;;;;;;5092372;28;20493;-33
2023/04/28 04:59:53;;;;;;;15.63;9.65;;;7.00;99.90;;;;;;5089950;28;20032;-33
2023/04/28 05:02:19;;;;;;;16.08;11.23;;;7.00;99.90;;;;;;5091705;28;20090;-33
2023/04/28 05:04:45;;;;;;;17.17;11.43;;;7.00;99.90;;;;;;5090250;28;20032;-33
2023/04/28 05:07:10;;;;;;;14.77;10.65;;;7.10;99.90;;;;;;5083970;28;20171;-33
2023/04/28 05:09:37;;;;;;;15.55;11.23;;;7.10;99.90;;;;;;5090286;28;20040;-33
2023/04/28 05:12:03;;;;;;;15.27;11.40;;;7.10;99.90;;;;;;5089215;28;20672;-33
2023/04/28 05:14:28;;;;;;;15.93;11.80;;;7.20;99.90;;;;;;5082315;28;20043;-33
2023/04/28 05:16:55;;;;;;;14.98;11.52;;;7.20;99.90;;;;;;5079993;28;20405;-33
2023/04/28 05:19:21;;;;;;;14.98;10.88;;;7.30;99.90;;;;;;5071182;28;20196;-33
2023/04/28 05:21:47;;;;;;;15.35;11.20;;;7.30;99.90;;;;;;5090548;28;20039;-33
2023/04/28 05:24:13;;;;;;;13.38;10.23;;;7.30;99.90;;;;;;5090026;28;20077;-33
2023/04/28 05:26:39;;;;;;;14.68;10.77;;;7.40;99.90;;;;;;5082312;28;20137;-33
2023/04/28 05:29:05;;;;;;;16.30;10.95;;;7.40;99.90;;;;;;5088985;28;20036;-33
2023/04/28 05:31:31;;;;;;;14.85;11.20;;;7.50;99.90;;;;;;5091453;28;20370;-33
2023/04/28 05:33:57;;;;;;;14.00;10.18;;;7.50;99.90;;;;;;5088099;28;20114;-33
2023/04/28 05:36:23;;;;;;;15.70;10.43;;;7.60;99.90;;;;;;5083647;28;20104;-33
2023/04/28 05:38:49;;;;;;;13.82;10.52;;;7.60;99.90;;;;;;5091032;28;20036;-33
2023/04/28 05:41:15;;;;;;;12.55;10.48;;;7.60;99.90;;;;;;5091280;28;20350;-33
2023/04/28 05:43:41;;;;;;;14.85;10.23;;;7.60;99.90;;;;;;5081955;28;20024;-33
2023/04/28 05:46:06;;;;;;;14.30;10.68;;;7.60;99.90;;;;;;5084710;28;20040;-33
2023/04/28 05:48:32;;;;;;;13.52;10.43;;;7.60;99.90;;;;;;5080677;28;20442;-33
2023/04/28 05:50:58;;;;;;;15.48;10.63;;;7.60;99.90;;;;;;5088350;28;20055;-33
2023/04/28 05:53:23;;;;;;;14.65;10.57;;;7.70;99.90;;;;;;5083122;28;20081;-33
2023/04/28 05:55:49;;;;;;;13.68;10.00;;;7.70;99.90;;;;;;5086098;28;20073;-33
2023/04/28 05:58:15;;;;;;;11.98;10.15;;;7.80;99.90;;;;;;5082908;28;20068;-33
2023/04/28 06:00:40;;;;;;;13.88;10.15;;;7.80;99.90;;;;;;5086846;28;20114;-33
2023/04/28 06:03:09;;;;;;;16.42;9.82;;;7.80;99.90;;;;;;5090100;28;20032;-33
2023/04/28 06:05:36;;;;;;;13.73;10.55;;;7.80;99.90;;;;;;5091134;28;20081;-33
2023/04/28 06:08:02;;;;;;;12.57;10.15;;;7.90;99.90;;;;;;5090568;28;20444;-33
2023/04/28 06:10:28;;;;;;;14.32;10.10;;;7.90;99.90;;;;;;5090895;28;20028;-33
2023/04/28 06:12:53;;;;;;;13.93;10.48;;;7.90;99.90;;;;;;5090269;28;20500;-33
2023/04/28 06:15:19;;;;;;;13.52;9.60;;;8.00;99.90;;;;;;5090519;28;20160;-33
2023/04/28 06:17:48;;;;;;;15.88;11.02;;;8.00;99.90;;;;;;5090284;28;20032;-33
2023/04/28 06:20:15;;;;;;;12.13;9.43;;;8.00;99.90;;;;;;5090476;28;20071;-33
2023/04/28 06:22:41;;;;;;;13.18;9.55;;;8.10;99.90;;;;;;5105730;28;20111;-33
2023/04/28 06:25:07;;;;;;;12.10;9.05;;;8.10;99.90;;;;;;5088344;28;20520;-33
2023/04/28 06:27:32;;;;;;;12.90;9.68;;;8.20;99.90;;;;;;5091015;28;20028;-32
2023/04/28 06:29:58;;;;;;;15.23;10.27;;;8.20;99.90;;;;;;5089568;28;20131;-33
2023/04/28 06:32:24;;;;;;;13.73;9.55;;;8.20;99.90;;;;;;5089940;28;20089;-32
2023/04/28 06:34:50;;;;;;;14.45;10.18;;;8.30;99.90;;;;;;5090695;28;20040;-33
2023/04/28 06:37:16;;;;;;;13.00;9.48;;;8.30;99.90;;;;;;5090094;28;20040;-33
2023/04/28 06:39:41;;;;;;;13.48;9.32;;;8.30;99.90;;;;;;5090165;28;20028;-33
2023/04/28 06:42:07;;;;;;;11.35;9.23;;;8.40;99.90;;;;;;5089283;28;20043;-33
2023/04/28 06:44:33;;;;;;;12.05;9.65;;;8.40;99.90;;;;;;5083194;28;20046;-33
2023/04/28 06:46:59;;;;;;;15.05;9.65;;;8.40;99.90;;;;;;5087865;28;20039;-33
2023/04/28 06:49:24;;;;;;;12.65;9.05;;;8.40;99.90;;;;;;5084097;28;20032;-33
2023/04/28 06:51:51;;;;;;;11.57;9.40;;;8.50;99.90;;;;;;5086327;28;20073;-33
2023/04/28 06:54:17;;;;;;;15.43;10.73;;;8.50;99.90;;;;;;5074649;28;20067;-33
2023/04/28 06:56:43;;;;;;;13.50;9.70;;;8.50;99.90;;;;;;5090069;28;20481;-33
2023/04/28 06:59:09;;;;;;;14.23;9.50;;;8.60;99.90;;;;;;5090057;28;20047;-33
2023/04/28 07:01:34;;;;;;;13.70;9.90;;;8.60;99.90;;;;;;5088484;28;20036;-33
2023/04/28 07:04:00;;;;;;;12.73;8.88;;;8.60;99.90;;;;;;5088257;28;20098;-33
2023/04/28 07:06:26;;;;;;;11.98;9.30;;;8.70;99.90;;;;;;5089641;28;20039;-33
2023/04/28 07:08:52;;;;;;;12.48;8.32;;;8.70;99.90;;;;;;5082391;28;20549;-33
2023/04/28 07:11:18;;;;;;;13.10;8.55;;;8.80;99.90;;;;;;5072503;28;20044;-33
2023/04/28 07:13:48;;;;;;;12.95;9.30;;;8.90;99.90;;;;;;5083128;28;20178;-33
2023/04/28 07:16:14;;;;;;;12.10;8.60;;;9.00;99.90;;;;;;5089909;28;20119;-33
2023/04/28 07:18:40;;;;;;;10.07;7.95;;;9.10;99.90;;;;;;5067753;28;20041;-33
2023/04/28 07:21:05;;;;;;;10.35;9.27;;;9.10;99.90;;;;;;5088657;28;20040;-33
2023/04/28 07:23:31;;;;;;;12.23;9.30;;;9.10;99.90;;;;;;5086472;28;20040;-32
2023/04/28 07:25:57;;;;;;;10.70;8.93;;;9.10;99.90;;;;;;5082154;28;20033;-33
2023/04/28 07:28:23;;;;;;;12.85;9.73;;;9.20;99.90;;;;;;5088481;28;20043;-33
2023/04/28 07:30:49;;;;;;;12.40;9.52;;;9.30;99.90;;;;;;5088819;28;20481;-33
2023/04/28 07:33:15;;;;;;;14.45;9.45;;;9.20;99.90;;;;;;5099233;28;20044;-33
2023/04/28 07:35:40;;;;;;;12.27;8.75;;;9.30;99.90;;;;;;5089507;28;20520;-33
2023/04/28 07:38:06;;;;;;;10.65;8.73;;;9.50;99.90;;;;;;5080474;28;20122;-33
2023/04/28 07:40:32;;;;;;;10.52;8.40;;;9.60;99.90;;;;;;5089269;28;20036;-33
2023/04/28 07:42:58;;;;;;;10.52;8.55;;;9.80;99.90;;;;;;5086141;28;20035;-33
2023/04/28 07:45:23;;;;;;;11.30;8.90;;;9.90;99.90;;;;;;5093492;28;20036;-33
2023/04/28 07:47:49;;;;;;;10.75;8.45;;;10.10;99.90;;;;;;5091194;28;20032;-33
2023/04/28 07:50:16;;;;;;;10.48;8.18;;;10.10;99.90;;;;;;5088932;28;20036;-33
2023/04/28 07:52:42;;;;;;;11.07;7.75;;;10.20;99.90;;;;;;5091455;28;20044;-33
2023/04/28 07:55:08;;;;;;;12.43;8.30;;;10.30;99.90;;;;;;5104892;28;20039;-33
2023/04/28 07:57:36;;;;;;;9.43;8.43;;;10.40;99.90;;;;;;5092943;28;20044;-33
2023/04/28 08:00:02;;;;;;;10.10;8.52;;;10.60;99.90;;;;;;5087238;28;20047;-33
2023/04/28 08:02:28;;;;;;;9.70;8.57;;;10.50;99.90;;;;;;5087123;28;20040;-33
2023/04/28 08:04:53;;;;;;;9.48;7.65;;;10.60;99.90;;;;;;5092531;28;20058;-33
2023/04/28 08:07:19;;;;;;;12.07;8.55;;;10.70;99.90;;;;;;5092959;28;20073;-33
2023/04/28 08:09:47;;;;;;;11.55;7.97;;;10.80;99.90;;;;;;5091056;28;20106;-33
2023/04/28 08:12:13;;;;;;;9.18;8.15;;;10.80;99.90;;;;;;5092458;28;20493;-33
2023/04/28 08:14:39;;;;;;;10.30;8.23;;;10.80;99.90;;;;;;5092824;28;20035;-33
2023/04/28 08:17:05;;;;;;;11.18;8.07;;;10.90;99.90;;;;;;5090137;28;20063;-33
2023/04/28 08:19:30;;;;;;;10.82;8.50;;;10.90;99.90;;;;;;5093741;28;20039;-33
2023/04/28 08:21:56;;;;;;;11.40;8.20;;;10.90;99.90;;;;;;5092540;28;20115;-33
2023/04/28 08:24:22;;;;;;;10.15;8.88;;;10.90;99.90;;;;;;5099714;28;20036;-33
2023/04/28 08:26:48;;;;;;;9.68;8.50;;;11.00;99.90;;;;;;5090396;28;20116;-33
2023/04/28 08:29:13;;;;;;;12.57;8.68;;;11.00;99.90;;;;;;5093495;28;20028;-33
2023/04/28 08:31:39;;;;;;;9.15;8.15;;;11.00;99.90;;;;;;5093654;28;20509;-33
2023/04/28 08:34:05;;;;;;;11.25;8.38;;;11.00;99.90;;;;;;5091751;28;20055;-33
2023/04/28 08:36:32;;;;;;;12.48;9.10;;;11.10;99.90;;;;;;5092861;28;20404;-33
2023/04/28 08:39:00;;;;;;;11.02;8.85;;;11.20;99.90;;;;;;5092267;28;20046;-33
2023/04/28 08:41:28;;;;;;;12.50;9.10;;;11.40;99.90;;;;;;5093374;28;20071;-33
2023/04/28 08:43:55;;;;;;;11.63;9.57;;;11.50;99.90;;;;;;5092279;28;20459;-33
2023/04/28 08:46:21;;;;;;;11.68;9.20;;;11.70;99.90;;;;;;5092882;28;20120;-33
2023/04/28 08:48:48;;;;;;;12.15;9.18;;;11.80;99.90;;;;;;5091181;28;20104;-33
2023/04/28 08:51:19;;;;;;;11.93;9.48;;;11.90;99.90;;;;;;5091092;28;20051;-33
2023/04/28 08:53:53;;;;;;;10.82;9.07;;;11.90;99.90;;;;;;5096194;28;20400;-33
2023/04/28 08:56:21;;;;;;;;;;;11.90;99.90;;;;;;5090046;28;20040;-33
2023/04/28 08:58:48;;;;;;;10.07;8.57;;;11.90;99.90;;;;;;5084408;28;19923;-33
2023/04/28 09:01:13;;;;;;;13.70;9.82;;;11.80;99.90;;;;;;5087456;28;20513;-33
2023/04/28 09:03:39;;;;;;;12.63;9.23;;;11.70;99.90;;;;;;5092505;28;20095;-33
2023/04/28 09:06:05;;;;;;;10.57;8.52;;;11.90;99.90;;;;;;5081883;28;20037;-33
2023/04/28 09:08:31;;;;;;;10.55;9.23;;;12.20;99.90;;;;;;5090758;28;20032;-33
2023/04/28 09:11:08;;;;;;;10.38;9.27;;;12.40;99.90;;;;;;5101064;28;20076;-32
2023/04/28 09:13:34;;;;;;;10.15;9.10;;;12.50;99.90;;;;;;5094061;28;20047;-32
2023/04/28 09:16:01;;;;;;;10.18;9.15;;;12.70;99.90;;;;;;5100853;28;20036;-31
2023/04/28 09:18:28;;;;;;;11.70;9.02;;;12.90;99.90;;;;;;5096530;28;20039;-32
2023/04/28 09:21:03;;;;;;;9.98;8.90;;;13.30;99.90;;;;;;5097461;28;20050;-31
2023/04/28 09:23:29;;;;;;;10.70;9.07;;;13.50;99.90;;;;;;5105617;28;20028;-32
2023/04/28 09:26:06;;;;;;;15.40;9.75;;;13.70;99.90;;;;;;5092768;28;20032;-32
2023/04/28 09:28:34;;;;;;;10.98;8.80;;;13.70;99.90;;;;;;5087864;28;20120;-32
2023/04/28 09:31:03;;;;;;;11.13;9.90;;;13.80;99.90;;;;;;5100748;28;20499;-31
2023/04/28 09:33:29;;;;;;;11.38;9.40;;;13.80;99.90;;;;;;5112001;28;20104;-30
2023/04/28 09:35:55;;;;;;;11.63;9.25;;;13.90;99.90;;;;;;5096105;28;20039;-30
2023/04/28 09:38:21;;;;;;;15.75;9.85;;;13.80;99.90;;;;;;5080734;28;20036;-31
2023/04/28 09:40:57;;;;;;;11.77;9.27;;;13.70;99.90;;;;;;5099405;28;20031;-31
2023/04/28 09:43:32;;;;;;;10.18;8.95;;;13.70;99.90;;;;;;5109563;28;20042;-31
2023/04/28 09:46:00;;;;;;;10.93;9.68;;;13.70;99.90;;;;;;5106914;28;20035;-31
2023/04/28 09:48:32;;;;;;;11.80;9.48;;;13.70;99.90;;;;;;5094571;28;20446;-31
2023/04/28 09:50:59;;;;;;;10.50;9.40;;;13.60;99.90;;;;;;5093844;28;20039;-32
2023/04/28 09:53:26;;;;;;;12.25;10.10;;;13.60;99.90;;;;;;5092271;28;20550;-31
2023/04/28 09:55:53;;;;;;;11.75;9.88;;;13.60;99.90;;;;;;5092113;28;20039;-31
2023/04/28 09:58:20;;;;;;;10.75;9.05;;;13.70;99.90;;;;;;5112903;27;20054;-31
2023/04/28 10:00:52;;;;;;;10.50;9.13;;;13.70;99.90;;;;;;5120646;27;20043;-31
2023/04/28 10:03:21;;;;;;;11.77;9.63;;;13.90;99.90;;;;;;5093271;28;20036;-32
2023/04/28 10:05:48;;;;;;;11.27;9.45;;;14.20;99.90;;;;;;5103021;28;20110;-31
2023/04/28 10:08:15;;;;;;;12.82;10.30;;;14.40;99.90;;;;;;5111833;28;20031;-32
2023/04/28 10:10:42;;;;;;;10.48;9.30;;;14.80;99.90;;;;;;5109375;28;20064;-31
2023/04/28 10:13:09;;;;;;;15.80;10.05;;;15.20;99.90;;;;;;5091800;28;20119;-31
2023/04/28 10:15:35;;;;;;;14.00;9.77;;;15.70;99.90;;;;;;5084271;28;20043;-32
2023/04/28 10:18:02;;;;;;;11.15;9.60;;;16.30;99.90;;;;;;5091249;28;20096;-32
2023/04/28 10:20:28;;;;;;;10.85;9.48;;;16.80;99.90;;;;;;5100028;28;20056;-32
2023/04/28 10:23:09;;;;;;;10.13;9.13;;;17.20;99.90;;;;;;5103306;28;20117;-32
2023/04/28 10:25:37;;;;;;;11.00;9.75;;;17.40;99.90;;;;;;5091616;28;20036;-32
2023/04/28 10:28:07;;;;;;;11.40;10.15;;;17.20;99.90;;;;;;5091253;28;20040;-32
2023/04/28 10:30:34;;;;;;;10.13;9.20;;;17.20;99.90;;;;;;5084607;28;20048;-32
2023/04/28 10:33:12;;;;;;;10.98;9.38;;;17.40;99.90;;;;;;5089519;28;20093;-31
2023/04/28 10:35:39;;;;;;;9.73;8.48;;;17.40;99.90;;;;;;5093616;28;20179;-31
2023/04/28 10:38:16;;;;;;;10.68;9.07;;;17.20;99.90;;;;;;5100594;28;20054;-32
2023/04/28 10:40:46;;;;;;;9.52;8.60;;;17.30;99.90;;;;;;5090896;28;20497;-32
2023/04/28 10:43:31;;;;;;;10.82;9.70;;;17.10;99.90;;;;;;5099791;28;20039;-31
2023/04/28 10:46:00;;;;;;;12.07;9.60;;;17.00;99.90;;;;;;5091182;28;20481;-32
2023/04/28 10:48:25;;;;;;;10.13;9.15;;;16.70;99.90;;;;;;5092234;28;20124;-31
2023/04/28 10:51:03;;;;;;;11.35;10.05;;;16.70;99.90;;;;;;5103827;28;20114;-31
2023/04/28 10:53:43;;;;;;;10.20;9.20;;;16.40;99.90;;;;;;5090680;28;20134;-31
2023/04/28 10:56:26;;;;;;;10.38;8.63;;;16.30;99.90;;;;;;5104889;28;20036;-32
2023/04/28 10:58:59;;;;;;;10.10;9.25;;;16.10;99.90;;;;;;5090751;28;20051;-32
2023/04/28 11:01:30;;;;;;;12.23;10.55;;;16.00;99.90;;;;;;5090895;28;20497;-32
2023/04/28 11:04:06;;;;;;;9.82;8.93;;;15.80;99.90;;;;;;5102102;28;20316;-32
2023/04/28 11:06:41;;;;;;;10.88;9.77;;;15.70;99.90;;;;;;5104192;28;20043;-32
2023/04/28 11:09:16;;;;;;;11.75;9.18;;;15.60;99.90;;;;;;5083117;28;20040;-32
2023/04/28 11:12:04;;;;;;;9.88;8.32;;;15.60;99.90;;;;;;5090737;28;20504;-32
2023/04/28 11:14:35;;;;;;;11.90;9.60;;;15.60;99.90;;;;;;5091840;28;20043;-32
2023/04/28 11:17:07;;;;;;;107.38;25.65;;;15.60;99.90;;;;;;5108306;28;20059;-33
2023/04/28 11:19:41;;;;;;;20.80;10.30;;;15.60;99.90;;;;;;5094537;28;20047;-31
2023/04/28 11:22:27;;;;;;;8.95;8.05;;;15.70;99.90;;;;;;5081077;28;20040;-32
2023/04/28 11:24:58;;;;;;;10.95;8.63;;;15.70;99.90;;;;;;5094127;28;20044;-32
2023/04/28 11:27:29;;;;;;;9.13;8.20;;;15.70;99.90;;;;;;5094747;28;20032;-32
2023/04/28 11:29:55;;;;;;;8.90;8.00;;;15.50;99.90;;;;;;5083130;28;20234;-31
2023/04/28 11:32:31;;;;;;;11.13;7.18;;;15.40;99.90;;;;;;5094801;28;20039;-31
2023/04/28 11:34:57;;;;;;;8.98;7.07;;;15.40;99.90;;;;;;5094583;28;20200;-32
2023/04/28 11:37:23;;;;;;;8.98;7.13;;;15.40;99.90;;;;;;5098306;28;20565;-32
2023/04/28 11:39:49;;;;;;;10.95;7.43;;;15.40;99.90;;;;;;5094455;28;20040;-32
2023/04/28 11:42:16;;;;;;;9.10;7.43;;;15.40;99.90;;;;;;5098493;28;20081;-31
2023/04/28 11:44:49;;;;;;;9.35;7.32;;;15.30;99.90;;;;;;5107066;28;20035;-32
2023/04/28 11:47:15;;;;;;;8.23;7.30;;;15.30;99.90;;;;;;5110636;28;20500;-31
2023/04/28 11:49:45;;;;;;;8.40;7.43;;;15.40;99.90;;;;;;5093975;28;20089;-32
2023/04/28 11:52:12;;;;;;;9.15;7.45;;;15.50;99.90;;;;;;5094538;28;20044;-31
2023/04/28 11:54:41;;;;;;;8.82;7.32;;;15.60;99.90;;;;;;5094150;28;20485;-31
2023/04/28 11:57:19;;;;;;;9.27;7.70;;;15.60;99.90;;;;;;5094118;28;20515;-31
2023/04/28 11:59:46;;;;;;;8.80;8.00;;;15.50;99.90;;;;;;5095596;28;20120;-31
2023/04/28 12:02:12;;;;;;;8.82;7.93;;;15.30;99.90;;;;;;5098198;28;20082;-31
2023/04/28 12:04:43;;;;;;;9.77;8.77;;;15.10;99.90;;;;;;5092541;28;20040;-32
2023/04/28 12:07:17;;;;;;;71.07;17.60;;;15.00;99.90;;;;;;5106169;28;20036;-31
2023/04/28 12:09:48;;;;;;;86.82;18.48;;;14.90;99.90;;;;;;5096931;28;20379;-31
2023/04/28 12:12:17;;;;;;;13.48;10.93;;;14.90;99.90;;;;;;5083161;28;20075;-31
2023/04/28 12:15:06;;;;;;;11.85;10.70;;;14.90;99.90;;;;;;5093682;28;20040;-31
2023/04/28 12:17:38;;;;;;;12.55;10.27;;;14.90;99.90;;;;;;5095868;28;20115;-32
2023/04/28 12:20:08;;;;;;;12.55;10.85;;;14.90;99.90;;;;;;5098942;28;20075;-32
2023/04/28 12:22:46;;;;;;;15.75;12.02;;;15.00;99.90;;;;;;5101071;28;20545;-32
2023/04/28 12:25:15;;;;;;;14.50;12.50;;;14.90;99.90;;;;;;5102377;28;20045;-32
2023/04/28 12:27:57;;;;;;;14.27;12.90;;;14.90;99.90;;;;;;5092556;28;20539;-30
2023/04/28 12:30:23;;;;;;;14.60;13.15;;;14.90;99.90;;;;;;5084571;28;20047;-31
2023/04/28 12:32:50;;;;;;;15.40;13.80;;;14.90;99.90;;;;;;5105717;28;20044;-31
2023/04/28 12:35:16;;;;;;;18.00;14.52;;;14.80;99.90;;;;;;5107488;28;20392;-31
2023/04/28 12:37:45;;;;;;;17.70;14.85;;;14.80;99.90;;;;;;5107409;28;20036;-32
2023/04/28 12:40:11;;;;;;;17.67;15.82;;;14.70;99.90;;;;;;5106770;28;20051;-32